Red Hill, South Carolina
Current Conditions -  °F | °C
As of 2:15 PM on Friday 21 Nov 2014 (Local Time) from KCDN Reporting Station
Clear Clear  
Wind Chill: 59°   Ceiling: Unl
Heat Index: 59°   Visibility: 10mi
Dew Point: 23°   Wind: 6mph
Humidity: 25%   Direction: 120°ESE
Pressure: 30.38"   Gusts: NA
Location:  34.2974°N, 80.6089°W
Report Text: KCDN 211915Z AUTO 12005KT 10SM CLR 15/M05 A3038 RMK AO2 TSNO
Loading
Personal Weather Stations






























Interactive Weather Map New forecast layout! Learn more

10-Day Weather Forecast

Advertisements
Track Severe Weather on mobile